PRVML SNCT-SNPA
Flight info
| Callsign | PRVML |
|---|---|
| Flight time | 1h 28m |
| Altitude | 7000 |
| Route | DCT 1944S04225W 1944S04238W 1946S04302W 1950S04309W REA 1950S04436W DCT |
| Aircraft | C172/L-SFG/C |
Departure
| Time | 2026-05-04 01:18 |
|---|---|
| Airport | Ubaporanga Airport (SNCT) |
Arrival
| Time | 2026-05-04 02:47 |
|---|---|
| Airport | Pará de Minas Airport (SNPA) |
| Time | Latitude | Longitude | Altitude | Speed | Heading |
|---|---|---|---|---|---|
| 2026-05-04 01:02 | -19.72807 | -42.11312 | 1942 ft | 0 kts | 265° |
| 2026-05-04 01:14 | -19.72794 | -42.11301 | 1942 ft | 5 kts | 72° |
| 2026-05-04 01:15 | -19.72766 | -42.11276 | 1944 ft | 6 kts | 30° |
| 2026-05-04 01:15 | -19.72749 | -42.11244 | 1942 ft | 0 kts | 78° |
| 2026-05-04 01:16 | -19.72748 | -42.11238 | 1942 ft | 5 kts | 80° |
| 2026-05-04 01:16 | -19.72742 | -42.11189 | 1942 ft | 8 kts | 24° |
| 2026-05-04 01:17 | -19.72632 | -42.11201 | 1939 ft | 36 kts | 352° |
| 2026-05-04 01:17 | -19.72226 | -42.11262 | 1928 ft | 80 kts | 352° |
| 2026-05-04 01:17 | -19.71644 | -42.11369 | 2031 ft | 90 kts | 348° |
| 2026-05-04 01:17 | -19.71050 | -42.11610 | 2176 ft | 93 kts | 337° |
| 2026-05-04 01:18 | -19.70456 | -42.11862 | 2369 ft | 93 kts | 346° |
| 2026-05-04 01:18 | -19.69865 | -42.12073 | 2542 ft | 89 kts | 323° |
| 2026-05-04 01:18 | -19.69577 | -42.12670 | 2602 ft | 94 kts | 269° |
| 2026-05-04 01:18 | -19.69744 | -42.13342 | 2697 ft | 96 kts | 238° |
| 2026-05-04 01:19 | -19.70085 | -42.13954 | 2783 ft | 96 kts | 236° |
| 2026-05-04 01:19 | -19.70378 | -42.14571 | 2842 ft | 95 kts | 240° |
| 2026-05-04 01:19 | -19.70766 | -42.15124 | 2932 ft | 91 kts | 225° |
| 2026-05-04 01:19 | -19.71205 | -42.15625 | 2897 ft | 94 kts | 230° |
| 2026-05-04 01:20 | -19.71649 | -42.16119 | 3034 ft | 88 kts | 218° |
| 2026-05-04 01:20 | -19.72083 | -42.16586 | 3170 ft | 89 kts | 216° |
| 2026-05-04 01:20 | -19.72393 | -42.17162 | 3325 ft | 94 kts | 242° |
| 2026-05-04 01:20 | -19.72627 | -42.17835 | 3406 ft | 101 kts | 243° |
| 2026-05-04 01:21 | -19.72892 | -42.18507 | 3583 ft | 95 kts | 237° |
| 2026-05-04 01:21 | -19.73160 | -42.19166 | 3688 ft | 94 kts | 252° |
| 2026-05-04 01:21 | -19.73193 | -42.19845 | 3767 ft | 92 kts | 272° |
| 2026-05-04 01:21 | -19.73188 | -42.20540 | 3811 ft | 100 kts | 270° |
| 2026-05-04 01:22 | -19.73186 | -42.21296 | 3923 ft | 103 kts | 270° |
| 2026-05-04 01:22 | -19.73190 | -42.22051 | 4090 ft | 102 kts | 269° |
| 2026-05-04 01:22 | -19.73194 | -42.22814 | 4231 ft | 104 kts | 270° |
| 2026-05-04 01:22 | -19.73200 | -42.23582 | 4353 ft | 104 kts | 270° |
| 2026-05-04 01:23 | -19.73205 | -42.24349 | 4508 ft | 104 kts | 270° |
| 2026-05-04 01:23 | -19.73211 | -42.25118 | 4638 ft | 104 kts | 270° |
| 2026-05-04 01:23 | -19.73217 | -42.25891 | 4774 ft | 105 kts | 270° |
| 2026-05-04 01:23 | -19.73223 | -42.26668 | 4940 ft | 105 kts | 271° |
| 2026-05-04 01:24 | -19.73229 | -42.27446 | 5100 ft | 105 kts | 271° |
| 2026-05-04 01:24 | -19.73235 | -42.28221 | 5192 ft | 105 kts | 271° |
| 2026-05-04 01:24 | -19.73241 | -42.28983 | 5349 ft | 102 kts | 271° |
| 2026-05-04 01:24 | -19.73247 | -42.29748 | 5475 ft | 104 kts | 270° |
| 2026-05-04 01:25 | -19.73251 | -42.30515 | 5556 ft | 104 kts | 271° |
| 2026-05-04 01:25 | -19.73258 | -42.31273 | 5697 ft | 102 kts | 272° |
| 2026-05-04 01:25 | -19.73263 | -42.32030 | 5785 ft | 103 kts | 272° |
| 2026-05-04 01:25 | -19.73268 | -42.32786 | 5912 ft | 102 kts | 272° |
| 2026-05-04 01:26 | -19.73274 | -42.33537 | 6034 ft | 102 kts | 272° |
| 2026-05-04 01:26 | -19.73279 | -42.34287 | 6145 ft | 101 kts | 272° |
| 2026-05-04 01:26 | -19.73284 | -42.35034 | 6261 ft | 101 kts | 272° |
| 2026-05-04 01:26 | -19.73289 | -42.35762 | 6505 ft | 98 kts | 271° |
| 2026-05-04 01:27 | -19.73294 | -42.36451 | 6651 ft | 92 kts | 270° |
| 2026-05-04 01:27 | -19.73299 | -42.37130 | 6746 ft | 92 kts | 270° |
| 2026-05-04 01:27 | -19.73304 | -42.37810 | 6851 ft | 93 kts | 270° |
| 2026-05-04 01:27 | -19.73308 | -42.38524 | 6862 ft | 102 kts | 270° |
| 2026-05-04 01:28 | -19.73313 | -42.39302 | 6722 ft | 109 kts | 271° |
| 2026-05-04 01:28 | -19.73321 | -42.40119 | 6724 ft | 113 kts | 271° |
| 2026-05-04 01:28 | -19.73325 | -42.40964 | 6864 ft | 116 kts | 270° |
| 2026-05-04 01:28 | -19.73329 | -42.41820 | 6862 ft | 116 kts | 270° |
| 2026-05-04 01:29 | -19.73330 | -42.42679 | 6862 ft | 116 kts | 271° |
| 2026-05-04 01:29 | -19.73329 | -42.43525 | 6853 ft | 111 kts | 271° |
| 2026-05-04 01:29 | -19.73329 | -42.44323 | 6848 ft | 106 kts | 270° |
| 2026-05-04 01:29 | -19.73329 | -42.45098 | 6845 ft | 104 kts | 270° |
| 2026-05-04 01:30 | -19.73330 | -42.45860 | 6846 ft | 103 kts | 270° |
| 2026-05-04 01:30 | -19.73331 | -42.46619 | 6844 ft | 102 kts | 271° |
| 2026-05-04 01:30 | -19.73333 | -42.47376 | 6779 ft | 102 kts | 270° |
| 2026-05-04 01:30 | -19.73335 | -42.48124 | 6921 ft | 101 kts | 271° |
| 2026-05-04 01:31 | -19.73333 | -42.48907 | 6819 ft | 110 kts | 271° |
| 2026-05-04 01:31 | -19.73332 | -42.49718 | 6794 ft | 108 kts | 270° |
| 2026-05-04 01:31 | -19.73332 | -42.50510 | 6791 ft | 106 kts | 270° |
| 2026-05-04 01:31 | -19.73332 | -42.51290 | 6787 ft | 105 kts | 270° |
| 2026-05-04 01:32 | -19.73332 | -42.52063 | 6785 ft | 104 kts | 270° |
| 2026-05-04 01:32 | -19.73332 | -42.52831 | 6784 ft | 104 kts | 271° |
| 2026-05-04 01:32 | -19.73332 | -42.53596 | 6782 ft | 103 kts | 271° |
| 2026-05-04 01:32 | -19.73333 | -42.54359 | 6781 ft | 103 kts | 270° |
| 2026-05-04 01:33 | -19.73332 | -42.55119 | 6781 ft | 103 kts | 270° |
| 2026-05-04 01:33 | -19.73332 | -42.55879 | 6781 ft | 103 kts | 270° |
| 2026-05-04 01:33 | -19.73331 | -42.56382 | 6780 ft | 103 kts | 271° |
| 2026-05-04 01:33 | -19.73332 | -42.57142 | 6780 ft | 103 kts | 271° |
| 2026-05-04 01:34 | -19.73332 | -42.57902 | 6780 ft | 103 kts | 271° |
| 2026-05-04 01:34 | -19.73332 | -42.58662 | 6780 ft | 103 kts | 270° |
| 2026-05-04 01:34 | -19.73331 | -42.59421 | 6780 ft | 103 kts | 270° |
| 2026-05-04 01:34 | -19.73331 | -42.60179 | 6779 ft | 103 kts | 270° |
| 2026-05-04 01:35 | -19.73330 | -42.60938 | 6779 ft | 103 kts | 270° |
| 2026-05-04 01:35 | -19.73329 | -42.61695 | 6779 ft | 103 kts | 270° |
| 2026-05-04 01:35 | -19.73329 | -42.62452 | 6779 ft | 103 kts | 270° |
| 2026-05-04 01:35 | -19.73329 | -42.63209 | 6778 ft | 102 kts | 270° |
| 2026-05-04 01:36 | -19.73391 | -42.63961 | 6778 ft | 102 kts | 266° |
| 2026-05-04 01:36 | -19.73450 | -42.64712 | 6781 ft | 103 kts | 265° |
| 2026-05-04 01:36 | -19.73511 | -42.65473 | 6784 ft | 104 kts | 265° |
| 2026-05-04 01:36 | -19.73575 | -42.66240 | 6783 ft | 104 kts | 265° |
| 2026-05-04 01:37 | -19.73639 | -42.67001 | 6782 ft | 103 kts | 265° |
| 2026-05-04 01:37 | -19.73703 | -42.67759 | 6779 ft | 103 kts | 265° |
| 2026-05-04 01:37 | -19.73771 | -42.68518 | 6651 ft | 104 kts | 267° |
| 2026-05-04 01:37 | -19.73832 | -42.69248 | 6746 ft | 95 kts | 267° |
| 2026-05-04 01:38 | -19.73891 | -42.69935 | 6856 ft | 92 kts | 269° |
| 2026-05-04 01:38 | -19.73948 | -42.70597 | 6934 ft | 92 kts | 266° |
| 2026-05-04 01:38 | -19.74002 | -42.71318 | 6953 ft | 104 kts | 267° |
| 2026-05-04 01:38 | -19.74067 | -42.72108 | 6947 ft | 111 kts | 267° |
| 2026-05-04 01:39 | -19.74135 | -42.72937 | 6949 ft | 115 kts | 267° |
| 2026-05-04 01:39 | -19.74207 | -42.73783 | 6944 ft | 117 kts | 267° |
| 2026-05-04 01:39 | -19.74280 | -42.74644 | 6948 ft | 117 kts | 267° |
| 2026-05-04 01:39 | -19.74354 | -42.75508 | 6936 ft | 118 kts | 267° |
| 2026-05-04 01:40 | -19.74428 | -42.76392 | 6935 ft | 118 kts | 268° |
| 2026-05-04 01:40 | -19.74499 | -42.77260 | 6936 ft | 118 kts | 267° |
| 2026-05-04 01:40 | -19.74571 | -42.78126 | 6943 ft | 121 kts | 267° |
| 2026-05-04 01:40 | -19.74646 | -42.79013 | 6944 ft | 121 kts | 267° |
| 2026-05-04 01:41 | -19.74720 | -42.79903 | 6945 ft | 121 kts | 267° |
| 2026-05-04 01:41 | -19.74796 | -42.80789 | 6946 ft | 121 kts | 268° |
| 2026-05-04 01:41 | -19.74868 | -42.81680 | 6947 ft | 122 kts | 267° |
| 2026-05-04 01:41 | -19.74941 | -42.82562 | 6944 ft | 116 kts | 267° |
| 2026-05-04 01:42 | -19.75015 | -42.83420 | 6943 ft | 117 kts | 268° |
| 2026-05-04 01:42 | -19.75086 | -42.84287 | 6947 ft | 119 kts | 267° |
| 2026-05-04 01:42 | -19.75159 | -42.85174 | 6948 ft | 121 kts | 267° |
| 2026-05-04 01:42 | -19.75233 | -42.86067 | 6953 ft | 122 kts | 267° |
| 2026-05-04 01:43 | -19.75309 | -42.86975 | 7058 ft | 125 kts | 266° |
| 2026-05-04 01:43 | -19.75386 | -42.87896 | 6921 ft | 122 kts | 267° |
| 2026-05-04 01:43 | -19.75460 | -42.88791 | 7030 ft | 124 kts | 266° |
| 2026-05-04 01:43 | -19.75537 | -42.89713 | 6916 ft | 127 kts | 265° |
| 2026-05-04 01:44 | -19.75613 | -42.90645 | 6800 ft | 127 kts | 266° |
| 2026-05-04 01:44 | -19.75692 | -42.91554 | 6705 ft | 119 kts | 267° |
| 2026-05-04 01:44 | -19.75764 | -42.92419 | 6731 ft | 119 kts | 266° |
| 2026-05-04 01:44 | -19.75835 | -42.93296 | 6818 ft | 119 kts | 266° |
| 2026-05-04 01:45 | -19.75906 | -42.94167 | 6792 ft | 117 kts | 265° |
| 2026-05-04 01:45 | -19.75976 | -42.95016 | 6786 ft | 114 kts | 265° |
| 2026-05-04 01:45 | -19.76114 | -42.96691 | 6791 ft | 115 kts | 265° |
| 2026-05-04 01:46 | -19.76184 | -42.97532 | 6786 ft | 113 kts | 265° |
| 2026-05-04 01:46 | -19.76253 | -42.98360 | 6784 ft | 112 kts | 265° |
| 2026-05-04 01:46 | -19.76320 | -42.99191 | 6786 ft | 113 kts | 265° |
| 2026-05-04 01:46 | -19.76386 | -43.00022 | 6785 ft | 112 kts | 265° |
| 2026-05-04 01:47 | -19.76458 | -43.00852 | 6786 ft | 113 kts | 265° |
| 2026-05-04 01:47 | -19.76527 | -43.01686 | 6785 ft | 113 kts | 266° |
| 2026-05-04 01:47 | -19.76594 | -43.02514 | 6782 ft | 113 kts | 265° |
| 2026-05-04 01:47 | -19.76681 | -43.03342 | 6776 ft | 113 kts | 255° |
| 2026-05-04 01:48 | -19.77078 | -43.04060 | 6781 ft | 113 kts | 240° |
| 2026-05-04 01:48 | -19.77478 | -43.04765 | 6786 ft | 113 kts | 239° |
| 2026-05-04 01:48 | -19.77887 | -43.05476 | 6786 ft | 113 kts | 239° |
| 2026-05-04 01:48 | -19.78292 | -43.06187 | 6787 ft | 112 kts | 240° |
| 2026-05-04 01:49 | -19.78699 | -43.06895 | 6783 ft | 112 kts | 239° |
| 2026-05-04 01:49 | -19.79101 | -43.07599 | 6781 ft | 111 kts | 239° |
| 2026-05-04 01:49 | -19.79502 | -43.08300 | 6780 ft | 111 kts | 239° |
| 2026-05-04 01:49 | -19.79903 | -43.09012 | 6784 ft | 113 kts | 240° |
| 2026-05-04 01:50 | -19.80304 | -43.09700 | 6883 ft | 105 kts | 240° |
| 2026-05-04 01:50 | -19.80671 | -43.10340 | 6987 ft | 99 kts | 240° |
| 2026-05-04 01:50 | -19.81038 | -43.10988 | 7002 ft | 105 kts | 240° |
| 2026-05-04 01:50 | -19.81428 | -43.11671 | 7012 ft | 111 kts | 239° |
| 2026-05-04 01:51 | -19.81834 | -43.12384 | 7009 ft | 114 kts | 240° |
| 2026-05-04 01:51 | -19.82247 | -43.13107 | 7007 ft | 114 kts | 240° |
| 2026-05-04 01:51 | -19.82662 | -43.13833 | 6997 ft | 116 kts | 240° |
| 2026-05-04 01:51 | -19.83077 | -43.14561 | 7002 ft | 115 kts | 240° |
| 2026-05-04 01:52 | -19.83455 | -43.15299 | 6998 ft | 113 kts | 249° |
| 2026-05-04 01:52 | -19.83783 | -43.16054 | 7002 ft | 113 kts | 245° |
| 2026-05-04 01:52 | -19.84118 | -43.16813 | 6998 ft | 113 kts | 245° |
| 2026-05-04 01:52 | -19.84453 | -43.17571 | 6998 ft | 114 kts | 246° |
| 2026-05-04 01:53 | -19.84787 | -43.18331 | 6894 ft | 114 kts | 246° |
| 2026-05-04 01:53 | -19.85120 | -43.19089 | 7003 ft | 115 kts | 246° |
| 2026-05-04 01:53 | -19.85457 | -43.19859 | 7011 ft | 115 kts | 246° |
| 2026-05-04 01:53 | -19.85794 | -43.20621 | 7004 ft | 113 kts | 245° |
| 2026-05-04 01:54 | -19.86124 | -43.21375 | 7006 ft | 113 kts | 246° |
| 2026-05-04 01:54 | -19.86453 | -43.22128 | 7004 ft | 112 kts | 246° |
| 2026-05-04 01:54 | -19.86780 | -43.22875 | 7002 ft | 111 kts | 246° |
| 2026-05-04 01:54 | -19.87106 | -43.23620 | 7009 ft | 112 kts | 246° |
| 2026-05-04 01:55 | -19.87437 | -43.24377 | 6999 ft | 113 kts | 246° |
| 2026-05-04 01:55 | -19.87768 | -43.25130 | 7004 ft | 112 kts | 246° |
| 2026-05-04 01:55 | -19.88097 | -43.25886 | 7005 ft | 113 kts | 245° |
| 2026-05-04 01:55 | -19.88430 | -43.26646 | 6999 ft | 113 kts | 246° |
| 2026-05-04 01:56 | -19.88761 | -43.27401 | 7006 ft | 113 kts | 246° |
| 2026-05-04 01:56 | -19.89100 | -43.28179 | 6919 ft | 119 kts | 246° |
| 2026-05-04 01:56 | -19.89450 | -43.28980 | 6796 ft | 120 kts | 246° |
| 2026-05-04 01:56 | -19.89805 | -43.29792 | 6676 ft | 122 kts | 246° |
| 2026-05-04 01:57 | -19.90158 | -43.30601 | 6552 ft | 123 kts | 246° |
| 2026-05-04 01:57 | -19.90513 | -43.31413 | 6501 ft | 118 kts | 246° |
| 2026-05-04 01:57 | -19.90853 | -43.32187 | 6493 ft | 113 kts | 246° |
| 2026-05-04 01:57 | -19.91178 | -43.32927 | 6492 ft | 109 kts | 246° |
| 2026-05-04 01:58 | -19.91492 | -43.33646 | 6493 ft | 105 kts | 245° |
| 2026-05-04 01:58 | -19.91795 | -43.34338 | 6502 ft | 103 kts | 246° |
| 2026-05-04 01:58 | -19.92099 | -43.35028 | 6417 ft | 102 kts | 248° |
| 2026-05-04 01:58 | -19.92394 | -43.35703 | 6523 ft | 101 kts | 246° |
| 2026-05-04 01:59 | -19.92689 | -43.36388 | 6506 ft | 102 kts | 246° |
| 2026-05-04 01:59 | -19.92989 | -43.37073 | 6508 ft | 104 kts | 246° |
| 2026-05-04 01:59 | -19.93295 | -43.37774 | 6506 ft | 105 kts | 246° |
| 2026-05-04 01:59 | -19.93600 | -43.38472 | 6501 ft | 103 kts | 246° |
| 2026-05-04 02:00 | -19.93903 | -43.39166 | 6505 ft | 104 kts | 246° |
| 2026-05-04 02:00 | -19.94207 | -43.39862 | 6502 ft | 103 kts | 246° |
| 2026-05-04 02:00 | -19.94512 | -43.40559 | 6501 ft | 104 kts | 246° |
| 2026-05-04 02:00 | -19.94814 | -43.41251 | 6499 ft | 103 kts | 246° |
| 2026-05-04 02:01 | -19.95165 | -43.41905 | 6490 ft | 102 kts | 229° |
| 2026-05-04 02:01 | -19.95623 | -43.42477 | 6496 ft | 102 kts | 232° |
| 2026-05-04 02:01 | -19.96074 | -43.43062 | 6494 ft | 102 kts | 232° |
| 2026-05-04 02:01 | -19.96528 | -43.43646 | 6494 ft | 102 kts | 232° |
| 2026-05-04 02:02 | -19.96977 | -43.44224 | 6491 ft | 101 kts | 232° |
| 2026-05-04 02:02 | -19.97421 | -43.44797 | 6493 ft | 100 kts | 232° |
| 2026-05-04 02:02 | -19.97868 | -43.45374 | 6501 ft | 102 kts | 232° |
| 2026-05-04 02:02 | -19.98320 | -43.45958 | 6498 ft | 102 kts | 232° |
| 2026-05-04 02:03 | -19.98770 | -43.46539 | 6497 ft | 102 kts | 232° |
| 2026-05-04 02:03 | -19.99219 | -43.47119 | 6496 ft | 101 kts | 232° |
| 2026-05-04 02:03 | -19.99667 | -43.47697 | 6496 ft | 101 kts | 232° |
| 2026-05-04 02:03 | -20.00116 | -43.48276 | 6497 ft | 102 kts | 232° |
| 2026-05-04 02:04 | -20.00565 | -43.48857 | 6496 ft | 101 kts | 232° |
| 2026-05-04 02:04 | -20.01012 | -43.49433 | 6494 ft | 101 kts | 232° |
| 2026-05-04 02:04 | -20.01457 | -43.50009 | 6494 ft | 101 kts | 231° |
| 2026-05-04 02:04 | -20.01903 | -43.50586 | 6498 ft | 102 kts | 232° |
| 2026-05-04 02:05 | -20.02361 | -43.51179 | 6506 ft | 106 kts | 231° |
| 2026-05-04 02:05 | -20.02833 | -43.51786 | 6503 ft | 109 kts | 232° |
| 2026-05-04 02:05 | -20.03311 | -43.52406 | 6503 ft | 108 kts | 232° |
| 2026-05-04 02:05 | -20.03786 | -43.53020 | 6502 ft | 108 kts | 232° |
| 2026-05-04 02:06 | -20.04261 | -43.53634 | 6503 ft | 107 kts | 232° |
| 2026-05-04 02:06 | -20.04738 | -43.54247 | 6502 ft | 107 kts | 232° |
| 2026-05-04 02:06 | -20.05211 | -43.54859 | 6501 ft | 107 kts | 232° |
| 2026-05-04 02:06 | -20.05682 | -43.55468 | 6499 ft | 107 kts | 232° |
| 2026-05-04 02:07 | -20.06131 | -43.56037 | 6476 ft | 94 kts | 221° |
| 2026-05-04 02:07 | -20.06528 | -43.56562 | 6511 ft | 88 kts | 220° |
| 2026-05-04 02:07 | -20.06909 | -43.57052 | 6497 ft | 83 kts | 221° |
| 2026-05-04 02:07 | -20.07268 | -43.57516 | 6521 ft | 80 kts | 220° |
| 2026-05-04 02:08 | -20.07620 | -43.57970 | 6558 ft | 78 kts | 220° |
| 2026-05-04 02:08 | -20.07973 | -43.58427 | 6590 ft | 82 kts | 220° |
| 2026-05-04 02:08 | -20.08336 | -43.58886 | 6577 ft | 82 kts | 219° |
| 2026-05-04 02:08 | -20.08712 | -43.59379 | 6620 ft | 90 kts | 221° |
| 2026-05-04 02:09 | -20.09137 | -43.59933 | 6600 ft | 102 kts | 222° |
| 2026-05-04 02:09 | -20.09608 | -43.60541 | 6617 ft | 110 kts | 222° |
| 2026-05-04 02:09 | -20.10096 | -43.61176 | 6695 ft | 115 kts | 223° |
| 2026-05-04 02:09 | -20.10621 | -43.61855 | 6706 ft | 121 kts | 223° |
| 2026-05-04 02:10 | -20.11174 | -43.62572 | 6704 ft | 130 kts | 224° |
| 2026-05-04 02:10 | -20.11749 | -43.63317 | 6702 ft | 135 kts | 229° |
| 2026-05-04 02:10 | -20.12346 | -43.64097 | 6698 ft | 136 kts | 228° |
| 2026-05-04 02:10 | -20.12946 | -43.64874 | 6700 ft | 136 kts | 229° |
| 2026-05-04 02:11 | -20.13534 | -43.65634 | 6694 ft | 129 kts | 226° |
| 2026-05-04 02:11 | -20.14107 | -43.66375 | 6695 ft | 129 kts | 227° |
| 2026-05-04 02:11 | -20.14670 | -43.67105 | 6693 ft | 129 kts | 228° |
| 2026-05-04 02:11 | -20.15246 | -43.67851 | 6612 ft | 134 kts | 227° |
| 2026-05-04 02:12 | -20.15837 | -43.68618 | 6488 ft | 134 kts | 227° |
| 2026-05-04 02:12 | -20.16401 | -43.69351 | 6478 ft | 124 kts | 228° |
| 2026-05-04 02:12 | -20.16933 | -43.70040 | 6475 ft | 116 kts | 227° |
| 2026-05-04 02:12 | -20.17434 | -43.70689 | 6470 ft | 114 kts | 227° |
| 2026-05-04 02:13 | -20.17939 | -43.71343 | 6485 ft | 114 kts | 228° |
| 2026-05-04 02:13 | -20.18428 | -43.71978 | 6481 ft | 110 kts | 227° |
| 2026-05-04 02:13 | -20.18919 | -43.72612 | 6480 ft | 112 kts | 227° |
| 2026-05-04 02:13 | -20.19420 | -43.73260 | 6481 ft | 114 kts | 226° |
| 2026-05-04 02:14 | -20.19925 | -43.73915 | 6488 ft | 116 kts | 227° |
| 2026-05-04 02:14 | -20.20437 | -43.74580 | 6493 ft | 115 kts | 227° |
| 2026-05-04 02:14 | -20.20939 | -43.75231 | 6493 ft | 115 kts | 227° |
| 2026-05-04 02:14 | -20.21442 | -43.75883 | 6493 ft | 115 kts | 227° |
| 2026-05-04 02:15 | -20.21959 | -43.76557 | 6496 ft | 118 kts | 228° |
| 2026-05-04 02:15 | -20.22478 | -43.77224 | 6490 ft | 118 kts | 228° |
| 2026-05-04 02:15 | -20.22959 | -43.77919 | 6494 ft | 119 kts | 244° |
| 2026-05-04 02:15 | -20.22899 | -43.78776 | 6499 ft | 119 kts | 301° |
| 2026-05-04 02:16 | -20.22368 | -43.79434 | 6498 ft | 117 kts | 317° |
| 2026-05-04 02:16 | -20.21819 | -43.80063 | 6497 ft | 116 kts | 318° |
| 2026-05-04 02:16 | -20.21265 | -43.80694 | 6497 ft | 118 kts | 319° |
| 2026-05-04 02:16 | -20.20697 | -43.81335 | 6562 ft | 118 kts | 311° |
| 2026-05-04 02:17 | -20.20140 | -43.81990 | 6480 ft | 116 kts | 318° |
| 2026-05-04 02:17 | -20.19592 | -43.82610 | 6485 ft | 115 kts | 318° |
| 2026-05-04 02:17 | -20.19048 | -43.83228 | 6484 ft | 113 kts | 319° |
| 2026-05-04 02:17 | -20.18509 | -43.83839 | 6494 ft | 114 kts | 319° |
| 2026-05-04 02:18 | -20.17965 | -43.84462 | 6486 ft | 115 kts | 319° |
| 2026-05-04 02:18 | -20.17421 | -43.85083 | 6485 ft | 114 kts | 319° |
| 2026-05-04 02:18 | -20.16874 | -43.85709 | 6486 ft | 116 kts | 319° |
| 2026-05-04 02:18 | -20.16322 | -43.86338 | 6482 ft | 116 kts | 319° |
| 2026-05-04 02:19 | -20.15774 | -43.86966 | 6481 ft | 115 kts | 319° |
| 2026-05-04 02:19 | -20.15221 | -43.87596 | 6487 ft | 117 kts | 319° |
| 2026-05-04 02:19 | -20.14670 | -43.88229 | 6451 ft | 117 kts | 317° |
| 2026-05-04 02:19 | -20.14116 | -43.88859 | 6329 ft | 120 kts | 318° |
| 2026-05-04 02:20 | -20.13554 | -43.89499 | 6209 ft | 119 kts | 319° |
| 2026-05-04 02:20 | -20.12999 | -43.90134 | 6184 ft | 115 kts | 317° |
| 2026-05-04 02:20 | -20.12464 | -43.90747 | 6177 ft | 111 kts | 318° |
| 2026-05-04 02:20 | -20.11959 | -43.91325 | 6172 ft | 102 kts | 317° |
| 2026-05-04 02:21 | -20.11626 | -43.91974 | 6170 ft | 104 kts | 278° |
| 2026-05-04 02:21 | -20.11553 | -43.92765 | 6190 ft | 112 kts | 279° |
| 2026-05-04 02:21 | -20.11468 | -43.93610 | 6191 ft | 118 kts | 279° |
| 2026-05-04 02:21 | -20.11379 | -43.94499 | 6191 ft | 123 kts | 278° |
| 2026-05-04 02:22 | -20.11289 | -43.95395 | 6186 ft | 121 kts | 279° |
| 2026-05-04 02:22 | -20.11200 | -43.96296 | 6184 ft | 123 kts | 278° |
| 2026-05-04 02:22 | -20.11108 | -43.97215 | 6192 ft | 126 kts | 278° |
| 2026-05-04 02:22 | -20.11012 | -43.98165 | 6185 ft | 132 kts | 277° |
| 2026-05-04 02:23 | -20.10914 | -43.99143 | 6185 ft | 134 kts | 279° |
| 2026-05-04 02:23 | -20.10815 | -44.00142 | 6182 ft | 137 kts | 278° |
| 2026-05-04 02:23 | -20.10717 | -44.01125 | 6175 ft | 131 kts | 278° |
| 2026-05-04 02:23 | -20.10622 | -44.02070 | 6174 ft | 126 kts | 278° |
| 2026-05-04 02:24 | -20.10560 | -44.02685 | 6174 ft | 127 kts | 278° |
| 2026-05-04 02:24 | -20.10467 | -44.03620 | 6179 ft | 125 kts | 280° |
| 2026-05-04 02:24 | -20.10374 | -44.04550 | 6126 ft | 128 kts | 278° |
| 2026-05-04 02:24 | -20.10277 | -44.05496 | 6025 ft | 129 kts | 279° |
| 2026-05-04 02:25 | -20.10183 | -44.06437 | 5967 ft | 126 kts | 278° |
| 2026-05-04 02:25 | -20.10089 | -44.07346 | 5963 ft | 122 kts | 278° |
| 2026-05-04 02:25 | -20.09838 | -44.08173 | 5961 ft | 116 kts | 320° |
| 2026-05-04 02:25 | -20.09159 | -44.08544 | 5972 ft | 110 kts | 353° |
| 2026-05-04 02:26 | -20.08392 | -44.08726 | 5916 ft | 117 kts | 352° |
| 2026-05-04 02:26 | -20.07631 | -44.08926 | 5950 ft | 113 kts | 353° |
| 2026-05-04 02:26 | -20.06880 | -44.09107 | 5960 ft | 110 kts | 353° |
| 2026-05-04 02:26 | -20.06143 | -44.09293 | 5955 ft | 106 kts | 353° |
| 2026-05-04 02:27 | -20.05434 | -44.09466 | 5953 ft | 101 kts | 353° |
| 2026-05-04 02:27 | -20.04764 | -44.09642 | 5953 ft | 98 kts | 354° |
| 2026-05-04 02:27 | -20.04102 | -44.09804 | 5952 ft | 98 kts | 354° |
| 2026-05-04 02:27 | -20.03438 | -44.09970 | 5958 ft | 100 kts | 353° |
| 2026-05-04 02:28 | -20.02766 | -44.10297 | 5958 ft | 110 kts | 336° |
| 2026-05-04 02:28 | -20.02101 | -44.10697 | 5967 ft | 111 kts | 339° |
| 2026-05-04 02:28 | -20.01409 | -44.11092 | 5959 ft | 112 kts | 338° |
| 2026-05-04 02:28 | -20.00728 | -44.11482 | 5964 ft | 111 kts | 338° |
| 2026-05-04 02:29 | -20.00039 | -44.11878 | 5956 ft | 114 kts | 339° |
| 2026-05-04 02:29 | -19.99340 | -44.12282 | 5967 ft | 114 kts | 340° |
| 2026-05-04 02:29 | -19.98622 | -44.12680 | 5955 ft | 117 kts | 339° |
| 2026-05-04 02:29 | -19.97927 | -44.13077 | 5953 ft | 112 kts | 339° |
| 2026-05-04 02:30 | -19.97253 | -44.13468 | 5945 ft | 109 kts | 340° |
| 2026-05-04 02:30 | -19.96582 | -44.13850 | 5953 ft | 111 kts | 340° |
| 2026-05-04 02:30 | -19.95896 | -44.14243 | 5957 ft | 113 kts | 339° |
| 2026-05-04 02:30 | -19.95206 | -44.14638 | 5957 ft | 112 kts | 339° |
| 2026-05-04 02:31 | -19.94521 | -44.15028 | 5946 ft | 111 kts | 340° |
| 2026-05-04 02:31 | -19.93852 | -44.15412 | 5946 ft | 110 kts | 340° |
| 2026-05-04 02:31 | -19.93178 | -44.15797 | 5948 ft | 110 kts | 340° |
| 2026-05-04 02:31 | -19.92503 | -44.16181 | 5943 ft | 108 kts | 340° |
| 2026-05-04 02:32 | -19.91946 | -44.16708 | 5939 ft | 114 kts | 298° |
| 2026-05-04 02:32 | -19.91912 | -44.17555 | 5951 ft | 119 kts | 252° |
| 2026-05-04 02:32 | -19.92176 | -44.18412 | 5956 ft | 125 kts | 254° |
| 2026-05-04 02:32 | -19.92450 | -44.19297 | 5949 ft | 125 kts | 253° |
| 2026-05-04 02:33 | -19.92710 | -44.20181 | 5940 ft | 123 kts | 252° |
| 2026-05-04 02:33 | -19.92978 | -44.21047 | 5941 ft | 123 kts | 253° |
| 2026-05-04 02:33 | -19.93237 | -44.21911 | 5956 ft | 122 kts | 253° |
| 2026-05-04 02:33 | -19.93497 | -44.22770 | 5935 ft | 121 kts | 253° |
| 2026-05-04 02:34 | -19.93750 | -44.23619 | 5951 ft | 122 kts | 254° |
| 2026-05-04 02:34 | -19.94008 | -44.24479 | 5956 ft | 122 kts | 254° |
| 2026-05-04 02:34 | -19.94266 | -44.25345 | 5942 ft | 122 kts | 253° |
| 2026-05-04 02:34 | -19.94527 | -44.26208 | 5949 ft | 124 kts | 253° |
| 2026-05-04 02:35 | -19.94786 | -44.27091 | 5958 ft | 125 kts | 252° |
| 2026-05-04 02:35 | -19.95053 | -44.27961 | 5952 ft | 123 kts | 253° |
| 2026-05-04 02:35 | -19.95317 | -44.28833 | 5944 ft | 122 kts | 253° |
| 2026-05-04 02:35 | -19.95565 | -44.29682 | 5944 ft | 119 kts | 253° |
| 2026-05-04 02:36 | -19.95823 | -44.30529 | 5936 ft | 120 kts | 253° |
| 2026-05-04 02:36 | -19.96074 | -44.31367 | 5960 ft | 120 kts | 253° |
| 2026-05-04 02:36 | -19.96325 | -44.32227 | 5949 ft | 122 kts | 252° |
| 2026-05-04 02:36 | -19.96573 | -44.33084 | 5950 ft | 120 kts | 261° |
| 2026-05-04 02:37 | -19.96393 | -44.33891 | 5955 ft | 113 kts | 305° |
| 2026-05-04 02:37 | -19.96041 | -44.34650 | 5956 ft | 115 kts | 303° |
| 2026-05-04 02:37 | -19.95680 | -44.35412 | 5949 ft | 115 kts | 303° |
| 2026-05-04 02:37 | -19.95333 | -44.36163 | 5942 ft | 110 kts | 304° |
| 2026-05-04 02:38 | -19.94997 | -44.36877 | 5921 ft | 107 kts | 302° |
| 2026-05-04 02:38 | -19.94657 | -44.37594 | 5846 ft | 113 kts | 302° |
| 2026-05-04 02:38 | -19.94296 | -44.38370 | 5794 ft | 124 kts | 302° |
| 2026-05-04 02:38 | -19.93893 | -44.39206 | 5696 ft | 126 kts | 302° |
| 2026-05-04 02:39 | -19.93505 | -44.40036 | 5594 ft | 126 kts | 302° |
| 2026-05-04 02:39 | -19.93104 | -44.40888 | 5509 ft | 132 kts | 302° |
| 2026-05-04 02:39 | -19.92684 | -44.41780 | 5431 ft | 138 kts | 301° |
| 2026-05-04 02:39 | -19.92254 | -44.42698 | 5329 ft | 136 kts | 302° |
| 2026-05-04 02:40 | -19.91839 | -44.43581 | 5239 ft | 133 kts | 303° |
| 2026-05-04 02:40 | -19.91410 | -44.44472 | 5135 ft | 139 kts | 304° |
| 2026-05-04 02:40 | -19.90973 | -44.45391 | 5067 ft | 140 kts | 304° |
| 2026-05-04 02:40 | -19.90495 | -44.46282 | 4956 ft | 139 kts | 306° |
| 2026-05-04 02:41 | -19.90008 | -44.47162 | 4843 ft | 140 kts | 307° |
| 2026-05-04 02:41 | -19.89505 | -44.48062 | 4734 ft | 143 kts | 306° |
| 2026-05-04 02:41 | -19.88994 | -44.48964 | 4602 ft | 140 kts | 310° |
| 2026-05-04 02:41 | -19.88449 | -44.49801 | 4369 ft | 135 kts | 311° |
| 2026-05-04 02:42 | -19.87931 | -44.50604 | 4132 ft | 130 kts | 311° |
| 2026-05-04 02:42 | -19.87419 | -44.51380 | 3905 ft | 126 kts | 311° |
| 2026-05-04 02:42 | -19.86905 | -44.52129 | 3672 ft | 125 kts | 310° |
| 2026-05-04 02:42 | -19.86395 | -44.52830 | 3624 ft | 118 kts | 311° |
| 2026-05-04 02:43 | -19.85925 | -44.53494 | 3640 ft | 108 kts | 310° |
| 2026-05-04 02:43 | -19.85458 | -44.54135 | 3642 ft | 112 kts | 310° |
| 2026-05-04 02:43 | -19.84968 | -44.54819 | 3640 ft | 120 kts | 311° |
| 2026-05-04 02:43 | -19.84448 | -44.55528 | 3647 ft | 123 kts | 311° |
| 2026-05-04 02:44 | -19.84009 | -44.56314 | 3631 ft | 126 kts | 282° |
| 2026-05-04 02:44 | -19.83868 | -44.57245 | 3633 ft | 129 kts | 278° |
| 2026-05-04 02:44 | -19.83717 | -44.58162 | 3619 ft | 120 kts | 276° |
| 2026-05-04 02:44 | -19.83561 | -44.59011 | 3545 ft | 112 kts | 279° |
| 2026-05-04 02:45 | -19.83393 | -44.59788 | 3458 ft | 106 kts | 280° |
| 2026-05-04 02:45 | -19.83239 | -44.60574 | 3400 ft | 108 kts | 281° |
| 2026-05-04 02:45 | -19.83098 | -44.61286 | 3335 ft | 93 kts | 280° |
| 2026-05-04 02:45 | -19.83113 | -44.61917 | 3170 ft | 77 kts | 235° |
| 2026-05-04 02:46 | -19.83469 | -44.62328 | 3038 ft | 73 kts | 204° |
| 2026-05-04 02:46 | -19.83830 | -44.62135 | 2880 ft | 76 kts | 102° |
| 2026-05-04 02:46 | -19.83981 | -44.61620 | 2841 ft | 73 kts | 108° |
| 2026-05-04 02:46 | -19.84080 | -44.61105 | 2785 ft | 68 kts | 104° |
| 2026-05-04 02:47 | -19.84157 | -44.60636 | 2691 ft | 61 kts | 105° |
| 2026-05-04 02:47 | -19.84209 | -44.60313 | 2700 ft | 30 kts | 99° |
| 2026-05-04 02:47 | -19.84225 | -44.60213 | 2719 ft | 1 kts | 54° |
| 2026-05-04 02:47 | -19.84210 | -44.60267 | 2718 ft | 17 kts | 277° |
| 2026-05-04 02:48 | -19.84189 | -44.60424 | 2688 ft | 21 kts | 278° |
| 2026-05-04 02:48 | -19.84217 | -44.60517 | 2681 ft | 10 kts | 232° |
| 2026-05-04 02:48 | -19.84232 | -44.60536 | 2680 ft | 0 kts | 231° |
| 2026-05-04 02:49 | -19.84234 | -44.60541 | 2680 ft | 6 kts | 244° |
| 2026-05-04 02:49 | -19.84249 | -44.60580 | 2677 ft | 2 kts | 189° |
| 2026-05-04 02:49 | -19.84251 | -44.60580 | 2677 ft | 0 kts | 182° |